createdAt,value
2018-05-07T00:01:43.224Z,40.72
2018-05-07T00:04:47.616Z,40.46
2018-05-07T00:07:51.062Z,40.56
2018-05-07T00:10:54.425Z,40.65
2018-05-07T00:13:57.712Z,40.62
2018-05-07T00:17:02.002Z,41.16
2018-05-07T00:20:05.335Z,41.67
2018-05-07T00:23:08.648Z,42.06
2018-05-07T00:26:11.960Z,41.95
2018-05-07T00:29:15.330Z,42.00
2018-05-07T00:32:18.754Z,42.11
2018-05-07T00:35:22.040Z,42.60
2018-05-07T00:38:33.358Z,42.67
2018-05-07T00:41:36.675Z,42.32
2018-05-07T00:44:40.924Z,42.23
2018-05-07T00:47:44.315Z,42.26
2018-05-07T00:50:47.640Z,42.61
2018-05-07T00:53:50.971Z,42.25
2018-05-07T00:56:54.241Z,42.62
2018-05-07T00:59:57.755Z,42.46
2018-05-07T01:03:01.398Z,42.25
2018-05-07T01:06:04.767Z,42.21
2018-05-07T01:09:08.143Z,43.05
2018-05-07T01:12:11.462Z,43.41
2018-05-07T01:15:14.894Z,43.09
2018-05-07T01:18:19.250Z,44.07
2018-05-07T01:21:22.576Z,43.87
2018-05-07T01:24:25.905Z,43.94
2018-05-07T01:27:29.668Z,44.07
2018-05-07T01:30:33.977Z,43.42
2018-05-07T01:33:37.399Z,43.42
2018-05-07T01:36:41.703Z,42.82
2018-05-07T01:39:45.007Z,42.92
2018-05-07T01:42:48.341Z,42.18
2018-05-07T01:45:51.689Z,42.13
2018-05-07T01:48:56.044Z,42.36
2018-05-07T01:52:03.595Z,42.46
2018-05-07T01:55:06.844Z,42.32
2018-05-07T01:58:10.122Z,42.01
2018-05-07T02:01:13.525Z,42.45
2018-05-07T02:04:16.868Z,42.55
2018-05-07T02:07:20.148Z,42.63
2018-05-07T02:10:23.467Z,42.30
2018-05-07T02:13:26.837Z,42.27
2018-05-07T02:16:31.876Z,42.08
2018-05-07T02:19:35.287Z,42.15
2018-05-07T02:22:38.658Z,42.00
2018-05-07T02:25:42.759Z,42.41
2018-05-07T02:28:45.908Z,41.95
2018-05-07T02:31:49.281Z,41.77
2018-05-07T02:34:52.643Z,42.31
2018-05-07T02:37:55.952Z,42.20
2018-05-07T02:40:59.352Z,42.14
2018-05-07T02:44:03.168Z,42.74
2018-05-07T02:47:06.524Z,42.57
2018-05-07T02:50:09.863Z,42.84
2018-05-07T02:53:13.132Z,43.04
2018-05-07T02:56:16.343Z,42.61
2018-05-07T02:59:19.736Z,42.75
2018-05-07T03:02:23.080Z,42.83
2018-05-07T03:05:26.328Z,43.03
2018-05-07T03:08:29.732Z,42.99
2018-05-07T03:11:34.029Z,42.51
2018-05-07T03:14:37.383Z,43.04
2018-05-07T03:17:40.767Z,42.97
2018-05-07T03:20:44.059Z,43.11
2018-05-07T03:23:49.379Z,43.69
2018-05-07T03:26:52.811Z,43.81
2018-05-07T03:29:56.341Z,44.05
2018-05-07T03:32:59.711Z,44.17
2018-05-07T03:36:04.247Z,44.04
2018-05-07T03:39:07.661Z,44.45
2018-05-07T03:42:11.922Z,44.41
2018-05-07T03:45:15.307Z,44.28
2018-05-07T06:04:09.396Z,43.77
2018-05-07T06:07:12.799Z,43.42
2018-05-07T06:10:16.284Z,43.40
2018-05-07T06:13:19.655Z,43.50
2018-05-07T06:16:23.115Z,43.80
2018-05-07T06:19:26.468Z,43.30
2018-05-07T06:22:29.884Z,43.23
2018-05-07T06:25:33.282Z,43.35
2018-05-07T06:28:36.560Z,42.90
2018-05-07T06:31:39.874Z,43.53
2018-05-07T06:34:43.719Z,43.01
2018-05-07T06:37:47.038Z,42.90
2018-05-07T06:40:50.462Z,42.40
2018-05-07T06:43:53.848Z,42.87
2018-05-07T06:46:58.183Z,41.93
2018-05-07T06:50:02.520Z,41.58
2018-05-07T06:53:05.874Z,41.08
2018-05-07T06:56:09.116Z,40.98
2018-05-07T06:59:12.388Z,41.00
2018-05-07T07:02:16.776Z,40.99
2018-05-07T07:05:20.022Z,41.12
2018-05-07T07:08:23.419Z,41.15
2018-05-07T07:11:26.589Z,40.74
2018-05-07T07:14:30.135Z,40.79
2018-05-07T07:17:33.586Z,40.74
2018-05-07T07:20:36.907Z,40.76
2018-05-07T07:23:40.334Z,40.33
2018-05-07T07:26:43.672Z,40.45
2018-05-07T07:29:47.051Z,39.47
2018-05-07T07:32:50.470Z,40.39
2018-05-07T07:35:54.556Z,39.35
2018-05-07T07:38:57.961Z,39.15
2018-05-07T07:42:01.283Z,39.07
2018-05-07T07:45:04.589Z,39.52
2018-05-07T07:48:07.895Z,39.46
2018-05-07T07:51:11.375Z,39.24
2018-05-07T07:54:14.696Z,39.31
2018-05-07T07:57:17.999Z,39.43
2018-05-07T08:00:21.286Z,39.23
2018-05-07T08:03:25.288Z,39.38
2018-05-07T08:06:28.513Z,39.26
2018-05-07T08:09:31.880Z,39.74
2018-05-07T08:12:35.259Z,38.91
2018-05-07T08:15:38.606Z,39.10
2018-05-07T08:18:41.949Z,38.98
2018-05-07T08:21:45.308Z,38.74
2018-05-07T08:24:48.633Z,39.45
2018-05-07T08:27:52.445Z,38.36
2018-05-07T08:30:55.875Z,38.04
2018-05-07T08:33:59.166Z,37.63
2018-05-07T08:37:02.584Z,37.40
2018-05-07T08:40:05.875Z,37.70
2018-05-07T08:43:10.249Z,37.35
2018-05-07T08:46:13.567Z,37.05
2018-05-07T08:49:17.223Z,37.05
2018-05-07T08:52:20.527Z,36.61
2018-05-07T08:55:24.061Z,37.05
2018-05-07T08:58:27.507Z,36.32
2018-05-07T09:01:30.795Z,36.38
2018-05-07T09:04:34.388Z,37.11
2018-05-07T09:07:37.727Z,36.89
2018-05-07T09:10:41.137Z,35.76
2018-05-07T09:13:44.487Z,35.78
2018-05-07T09:16:47.861Z,36.50
2018-05-07T09:19:51.265Z,35.14
2018-05-07T09:22:55.503Z,35.71
2018-05-07T09:25:58.843Z,35.92
2018-05-07T09:29:02.212Z,35.38
2018-05-07T09:32:05.543Z,35.55
2018-05-07T09:35:08.916Z,35.52
2018-05-07T09:38:12.207Z,34.50
2018-05-07T09:41:15.547Z,34.88
2018-05-07T09:44:18.986Z,34.24
2018-05-07T09:47:22.310Z,34.01
2018-05-07T09:50:26.245Z,34.76
2018-05-07T09:53:29.703Z,35.18
2018-05-07T09:56:33.581Z,33.50
2018-05-07T09:59:36.837Z,33.22
2018-05-07T10:02:40.187Z,33.12
2018-05-07T10:05:43.659Z,33.61
2018-05-07T10:08:46.955Z,34.40
2018-05-07T10:11:52.301Z,34.45
2018-05-07T10:14:56.643Z,34.18
2018-05-07T10:17:59.791Z,34.88
2018-05-07T10:21:03.120Z,34.07
2018-05-07T10:24:06.622Z,34.13
2018-05-07T10:27:09.785Z,33.17
2018-05-07T10:30:13.059Z,32.51
2018-05-07T10:33:16.354Z,32.58
2018-05-07T10:36:19.708Z,32.11
2018-05-07T10:39:23.001Z,32.19
2018-05-07T10:42:27.281Z,30.55
2018-05-07T10:45:30.677Z,31.27
2018-05-07T10:48:34.024Z,29.95
2018-05-07T10:51:37.368Z,29.79
2018-05-07T10:54:40.766Z,29.94
2018-05-07T10:57:43.947Z,29.74
2018-05-07T11:00:47.335Z,29.00
2018-05-07T11:03:50.615Z,28.30
2018-05-07T11:06:54.289Z,29.02
2018-05-07T11:09:57.560Z,28.93
2018-05-07T11:13:00.927Z,28.76
2018-05-07T11:16:04.162Z,28.87
2018-05-07T11:19:07.401Z,27.04
2018-05-07T11:22:10.717Z,27.47
2018-05-07T11:25:13.944Z,27.75
2018-05-07T11:28:17.259Z,29.15
2018-05-07T11:31:20.637Z,28.57
2018-05-07T11:34:24.682Z,27.42
2018-05-07T11:37:27.963Z,26.74
2018-05-07T11:40:31.237Z,26.33
2018-05-07T11:43:34.427Z,27.52
2018-05-07T11:46:45.483Z,27.25
2018-05-07T11:49:48.720Z,27.38
2018-05-07T11:52:51.964Z,27.71
2018-05-07T11:55:56.135Z,27.42
2018-05-07T11:58:59.490Z,27.29
2018-05-07T12:02:02.838Z,27.22
2018-05-07T12:05:06.058Z,27.37
2018-05-07T12:08:09.350Z,26.85
2018-05-07T12:11:12.625Z,26.16
2018-05-07T12:14:16.010Z,26.21
2018-05-07T12:17:19.189Z,25.49
2018-05-07T12:20:22.481Z,26.73
2018-05-07T12:23:26.616Z,26.05
2018-05-07T12:26:29.896Z,25.90
2018-05-07T12:29:33.189Z,25.77
2018-05-07T12:32:36.553Z,25.99
2018-05-07T12:35:39.921Z,26.85
2018-05-07T12:38:43.111Z,26.01
2018-05-07T12:41:46.475Z,26.10
2018-05-07T12:44:49.771Z,25.98
2018-05-07T12:47:53.102Z,25.50
2018-05-07T12:50:56.492Z,25.50
2018-05-07T12:54:00.615Z,25.99
2018-05-07T12:57:03.816Z,25.88
2018-05-07T13:00:07.359Z,25.90
2018-05-07T13:03:10.788Z,25.39
2018-05-07T13:06:14.039Z,25.36
2018-05-07T13:09:17.379Z,24.57
2018-05-07T13:12:25.810Z,25.32
2018-05-07T13:15:29.459Z,24.90
2018-05-07T13:18:32.610Z,25.33
2018-05-07T13:21:35.903Z,24.98
2018-05-07T13:24:41.444Z,25.30
2018-05-07T13:27:44.785Z,24.87
2018-05-07T13:30:48.159Z,25.53
2018-05-07T13:33:51.513Z,24.50
2018-05-07T13:36:55.532Z,24.58
2018-05-07T13:39:59.017Z,24.48
2018-05-07T13:43:02.497Z,24.38
2018-05-07T13:46:05.897Z,24.59
2018-05-07T13:49:09.291Z,24.82
2018-05-07T13:52:12.670Z,24.57
2018-05-07T13:55:17.410Z,23.44
2018-05-07T13:58:20.659Z,22.56
2018-05-07T14:01:23.993Z,23.38
2018-05-07T14:04:28.246Z,23.57
2018-05-07T14:07:33.667Z,23.01
2018-05-07T14:10:37.045Z,23.37
2018-05-07T14:13:40.525Z,23.08
2018-05-07T14:16:43.713Z,22.53
2018-05-07T14:19:47.074Z,22.48
2018-05-07T14:22:50.299Z,22.74
2018-05-07T14:25:53.640Z,22.41
2018-05-07T14:28:56.934Z,23.01
2018-05-07T14:32:00.240Z,23.05
2018-05-07T14:35:03.634Z,22.89
2018-05-07T14:38:08.099Z,22.98
2018-05-07T14:41:11.560Z,23.18
2018-05-07T14:44:14.845Z,23.41
2018-05-07T14:47:18.230Z,23.94
2018-05-07T14:50:21.680Z,23.60
2018-05-07T14:53:24.964Z,23.36
2018-05-07T14:56:28.126Z,23.62
2018-05-07T14:59:32.421Z,23.48
2018-05-07T15:02:36.417Z,24.01
2018-05-07T15:05:39.755Z,24.12
2018-05-07T15:08:43.138Z,22.67
2018-05-07T15:11:46.509Z,22.87
2018-05-07T15:14:49.785Z,23.47
2018-05-07T15:17:52.993Z,23.09
2018-05-07T15:20:57.315Z,22.99
2018-05-07T15:24:00.720Z,23.33
2018-05-07T15:27:03.944Z,22.74
2018-05-07T15:30:07.320Z,22.72
2018-05-07T15:33:18.784Z,22.66
2018-05-07T15:36:22.070Z,23.16
2018-05-07T15:39:25.276Z,23.39
2018-05-07T15:42:29.575Z,23.09
2018-05-07T15:45:32.796Z,22.82
2018-05-07T15:48:35.988Z,22.98
2018-05-07T15:51:39.427Z,23.53
2018-05-07T15:54:42.691Z,23.54
2018-05-07T15:57:47.227Z,23.57
2018-05-07T16:00:50.588Z,23.40
2018-05-07T16:03:53.917Z,23.07
2018-05-07T16:06:58.353Z,22.70
2018-05-07T16:10:02.630Z,22.46
2018-05-07T16:13:05.896Z,23.38
2018-05-07T16:16:11.346Z,23.00
2018-05-07T16:19:14.771Z,23.10
2018-05-07T16:22:18.188Z,22.86
2018-05-07T16:25:21.487Z,22.55
2018-05-07T16:28:25.096Z,22.66
2018-05-07T16:31:29.364Z,22.36
2018-05-07T16:34:32.733Z,22.53
2018-05-07T16:37:36.063Z,22.36
2018-05-07T16:40:39.499Z,22.55
2018-05-07T16:43:42.844Z,22.99
2018-05-07T16:46:46.156Z,22.85
2018-05-07T16:49:49.831Z,23.50
2018-05-07T16:52:53.247Z,23.08
2018-05-07T16:55:56.520Z,23.59
2018-05-07T16:58:59.952Z,23.75
2018-05-07T17:02:03.291Z,23.53
2018-05-07T17:05:07.888Z,23.85
2018-05-07T17:08:11.266Z,24.09
2018-05-07T17:11:14.466Z,24.01
2018-05-07T17:14:17.644Z,23.89
2018-05-07T17:17:21.044Z,24.18
2018-05-07T17:20:24.529Z,24.42
2018-05-07T17:23:28.811Z,24.55
2018-05-07T17:26:32.196Z,24.64
2018-05-07T17:29:36.968Z,25.06
2018-05-07T17:32:41.513Z,24.76
2018-05-07T17:35:44.937Z,25.13
2018-05-07T17:38:48.300Z,25.16
2018-05-07T17:41:51.637Z,25.42
2018-05-07T17:45:07.781Z,25.58
2018-05-07T17:48:22.475Z,25.45
2018-05-07T17:51:25.944Z,25.70
2018-05-07T17:54:29.359Z,25.73
2018-05-07T17:57:32.745Z,25.54
2018-05-07T18:00:37.076Z,25.77
2018-05-07T18:03:41.888Z,26.08
2018-05-07T18:06:45.198Z,26.19
2018-05-07T18:09:48.576Z,26.31
2018-05-07T18:12:51.952Z,26.70
2018-05-07T18:15:55.272Z,26.79
2018-05-07T18:18:58.657Z,26.95
2018-05-07T18:22:02.055Z,26.90
2018-05-07T18:25:05.423Z,27.23
2018-05-07T18:28:09.001Z,27.55
2018-05-07T18:31:13.380Z,27.36
2018-05-07T18:34:16.751Z,27.62
2018-05-07T18:37:20.071Z,27.68
2018-05-07T18:40:23.425Z,27.46
2018-05-07T18:43:26.755Z,28.29
2018-05-07T18:46:30.071Z,28.36
2018-05-07T18:49:33.470Z,28.41
2018-05-07T18:52:37.585Z,28.64
2018-05-07T18:55:40.954Z,28.87
2018-05-07T18:58:44.288Z,28.98
2018-05-07T19:01:47.710Z,29.52
2018-05-07T19:04:51.610Z,29.95
2018-05-07T19:07:54.773Z,30.19
2018-05-07T19:10:58.092Z,30.38
2018-05-07T19:14:01.448Z,30.75
2018-05-07T19:17:04.727Z,30.73
2018-05-07T19:20:09.080Z,31.10
2018-05-07T19:23:12.352Z,31.19
2018-05-07T19:26:15.776Z,31.64
2018-05-07T19:29:19.107Z,31.85
2018-05-07T19:32:22.380Z,32.33
2018-05-07T19:35:25.719Z,32.44
2018-05-07T19:38:29.120Z,32.71
2018-05-07T19:41:32.699Z,33.23
2018-05-07T19:44:36.766Z,32.77
2018-05-07T19:47:40.166Z,33.53
2018-05-07T19:50:43.538Z,33.80
2018-05-07T19:53:46.941Z,33.99
2018-05-07T19:56:50.346Z,34.44
2018-05-07T19:59:54.585Z,34.51
2018-05-07T20:02:57.876Z,35.03
2018-05-07T20:06:01.154Z,34.84
2018-05-07T20:09:04.971Z,34.87
2018-05-07T20:12:09.200Z,36.09
2018-05-07T20:15:12.492Z,37.04
2018-05-07T20:18:15.799Z,37.08
2018-05-07T20:21:19.107Z,37.65
2018-05-07T20:24:22.459Z,37.74
2018-05-07T20:27:25.827Z,38.35
2018-05-07T20:30:29.197Z,38.76
2018-05-07T20:33:33.420Z,39.63
2018-05-07T20:36:37.225Z,39.89
2018-05-07T20:39:40.599Z,41.04
2018-05-07T20:42:43.899Z,41.64
2018-05-07T20:45:47.194Z,41.51
2018-05-07T20:48:50.552Z,41.79
2018-05-07T20:51:53.770Z,42.61
2018-05-07T20:54:57.191Z,42.85
2018-05-07T20:58:00.561Z,43.07
2018-05-07T21:01:04.136Z,42.95
2018-05-07T21:04:09.400Z,42.84
2018-05-07T21:07:13.842Z,40.95
2018-05-07T21:10:17.368Z,40.60
2018-05-07T21:13:21.810Z,40.67
2018-05-07T21:16:25.111Z,41.22
2018-05-07T21:19:28.473Z,41.42
2018-05-07T21:22:32.545Z,40.62
2018-05-07T21:25:35.853Z,40.94
2018-05-07T21:28:40.456Z,41.84
2018-05-07T21:31:43.764Z,43.74
2018-05-07T21:34:48.792Z,44.37
2018-05-07T21:37:52.500Z,44.60
2018-05-07T21:40:56.968Z,44.52
2018-05-07T21:44:00.383Z,44.56
2018-05-07T21:47:03.749Z,45.00
2018-05-07T21:50:07.528Z,45.15
2018-05-07T21:53:11.341Z,45.04
2018-05-07T21:56:14.643Z,45.45
2018-05-07T21:59:19.037Z,45.11
2018-05-07T22:02:22.377Z,44.84
2018-05-07T22:05:25.679Z,44.71
2018-05-07T22:08:29.108Z,44.57
2018-05-07T22:11:32.487Z,44.63
2018-05-07T22:14:36.011Z,44.50
2018-05-07T22:17:40.191Z,44.50
2018-05-07T22:20:43.503Z,44.39
2018-05-07T22:23:46.905Z,43.97
2018-05-07T22:26:50.260Z,44.57
2018-05-07T22:29:53.619Z,44.71
2018-05-07T22:32:57.003Z,46.19
2018-05-07T22:36:00.425Z,46.95
2018-05-07T22:39:03.812Z,47.35
2018-05-07T22:42:07.882Z,48.10
2018-05-07T22:45:11.329Z,48.53
2018-05-07T22:48:14.639Z,48.98
2018-05-07T22:51:17.857Z,49.45
2018-05-07T22:54:21.187Z,50.18
2018-05-07T22:57:24.531Z,50.44
2018-05-07T23:00:28.277Z,50.48
2018-05-07T23:03:31.679Z,50.36
2018-05-07T23:06:34.880Z,50.12
2018-05-07T23:09:38.221Z,49.74
2018-05-07T23:12:41.519Z,48.81
2018-05-07T23:15:44.921Z,48.46
2018-05-07T23:18:48.791Z,47.81
2018-05-07T23:21:52.294Z,47.72
2018-05-07T23:24:56.024Z,47.14
2018-05-07T23:27:59.444Z,45.64
2018-05-07T23:31:02.745Z,42.25
2018-05-07T23:34:06.119Z,41.29
2018-05-07T23:37:10.363Z,39.94
2018-05-07T23:40:13.583Z,39.39
2018-05-07T23:43:16.933Z,39.36
2018-05-07T23:46:20.348Z,39.15
2018-05-07T23:49:23.596Z,38.73
2018-05-07T23:52:27.040Z,38.34
2018-05-07T23:55:30.376Z,38.25
2018-05-07T23:58:33.704Z,37.96
